Time;durP1;ratioP1;P1;durP2;ratioP2;P2;SDS_P1;SDS_P2;PMS_P1;PMS_P2;Temp;Humidity;BMP_temperature;BMP_pressure;BME280_temperature;BME280_humidity;BME280_pressure;Samples;Min_cycle;Max_cycle;Signal;HPM_P1;HPM_P2
2023/02/06 00:01:10;;;;;;;13.43;12.90;;;19.20;52.10;;;;;;5111533;28;20466;-59
2023/02/06 00:03:37;;;;;;;13.50;12.50;;;19.20;52.20;;;;;;5095422;28;20446;-60
2023/02/06 00:06:04;;;;;;;13.03;12.53;;;19.10;52.30;;;;;;5095593;28;20450;-59
2023/02/06 00:08:31;;;;;;;13.67;12.90;;;19.10;52.40;;;;;;5095402;28;20450;-59
2023/02/06 00:10:58;;;;;;;13.27;12.67;;;19.10;52.50;;;;;;5094819;28;20469;-60
2023/02/06 00:13:25;;;;;;;13.07;12.37;;;19.10;52.60;;;;;;5095436;28;20539;-60
2023/02/06 00:15:53;;;;;;;12.90;12.13;;;19.10;52.80;;;;;;5095038;28;20917;-61
2023/02/06 00:18:20;;;;;;;12.17;11.40;;;19.00;52.70;;;;;;5095254;28;20708;-61
2023/02/06 00:20:46;;;;;;;13.83;12.97;;;19.10;52.80;;;;;;5094456;28;21056;-61
2023/02/06 00:23:15;;;;;;;12.20;11.83;;;19.00;52.80;;;;;;5094996;28;20466;-61
2023/02/06 00:25:41;;;;;;;12.47;11.97;;;19.00;52.80;;;;;;5095135;28;20800;-59
2023/02/06 00:28:08;;;;;;;13.90;12.97;;;19.00;52.70;;;;;;5099103;28;20532;-60
2023/02/06 00:30:35;;;;;;;13.80;13.10;;;19.00;52.80;;;;;;5114887;28;20467;-57
2023/02/06 00:33:03;;;;;;;12.90;12.40;;;19.00;52.80;;;;;;5115236;28;21005;-59
2023/02/06 00:35:30;;;;;;;13.57;12.87;;;19.00;52.70;;;;;;5115446;28;20484;-61
2023/02/06 00:37:58;;;;;;;13.03;12.30;;;18.90;52.70;;;;;;5111996;28;21075;-60
2023/02/06 00:40:25;;;;;;;13.67;12.73;;;18.90;52.70;;;;;;5112885;28;20469;-60
2023/02/06 00:42:52;;;;;;;12.90;12.20;;;18.90;52.80;;;;;;5115083;28;20982;-61
2023/02/06 00:45:19;;;;;;;12.77;12.20;;;18.90;53.40;;;;;;5115228;28;20445;-59
2023/02/06 00:47:46;;;;;;;13.70;13.00;;;18.90;52.90;;;;;;5114907;28;20441;-59
2023/02/06 00:50:14;;;;;;;12.97;12.23;;;18.90;52.80;;;;;;5108174;28;20621;-60
2023/02/06 00:52:41;;;;;;;13.90;13.20;;;18.90;52.90;;;;;;5094602;28;20482;-60
2023/02/06 00:55:08;;;;;;;14.07;13.03;;;18.90;52.90;;;;;;5093663;28;20478;-59
2023/02/06 00:57:35;;;;;;;13.40;12.50;;;18.90;52.80;;;;;;5094536;28;20443;-60
2023/02/06 01:00:02;;;;;;;13.83;13.23;;;18.80;52.70;;;;;;5094210;28;20537;-60
2023/02/06 01:02:29;;;;;;;13.90;13.30;;;18.80;52.70;;;;;;5098358;28;20467;-59
2023/02/06 01:04:55;;;;;;;15.73;14.30;;;18.80;52.70;;;;;;5094134;28;20535;-60
2023/02/06 01:07:23;;;;;;;14.30;13.33;;;18.80;52.70;;;;;;5094315;28;20473;-59
2023/02/06 01:09:50;;;;;;;15.90;14.60;;;18.80;52.70;;;;;;5094027;28;20445;-60
2023/02/06 01:12:17;;;;;;;14.63;13.53;;;18.80;52.80;;;;;;5094008;28;20629;-60
2023/02/06 01:14:44;;;;;;;14.30;13.17;;;18.80;52.70;;;;;;5102971;28;20487;-60
2023/02/06 01:17:11;;;;;;;14.57;13.47;;;18.80;52.80;;;;;;5114559;28;20964;-59
2023/02/06 01:19:38;;;;;;;14.23;13.40;;;18.80;52.80;;;;;;5114346;28;20441;-59
2023/02/06 01:22:05;;;;;;;12.87;12.03;;;18.80;52.90;;;;;;5114485;28;20477;-60
2023/02/06 01:24:33;;;;;;;15.70;14.53;;;18.80;52.90;;;;;;5113690;28;20442;-58
2023/02/06 01:27:00;;;;;;;14.37;13.30;;;18.80;52.90;;;;;;5094239;28;20448;-60
2023/02/06 01:29:27;;;;;;;14.57;13.53;;;18.80;52.90;;;;;;5108299;28;20566;-60
2023/02/06 01:31:54;;;;;;;14.33;13.63;;;18.70;52.90;;;;;;5114166;28;20473;-60
2023/02/06 01:34:20;;;;;;;17.50;16.20;;;18.70;53.00;;;;;;5114053;28;20557;-57
2023/02/06 01:36:47;;;;;;;15.20;13.80;;;18.70;53.00;;;;;;5094816;28;20438;-60
2023/02/06 01:39:14;;;;;;;14.20;13.30;;;18.70;53.00;;;;;;5093339;28;20442;-57
2023/02/06 01:41:42;;;;;;;15.07;14.23;;;18.70;53.00;;;;;;5093468;28;20838;-57
2023/02/06 01:44:14;;;;;;;14.07;13.07;;;18.70;53.00;;;;;;5093636;28;20435;-58
2023/02/06 01:46:42;;;;;;;15.03;14.03;;;18.70;53.00;;;;;;5094663;28;20437;-58
2023/02/06 01:49:15;;;;;;;15.23;14.23;;;18.70;53.10;;;;;;5093254;28;20449;-57
2023/02/06 01:51:42;;;;;;;15.13;14.00;;;18.60;53.00;;;;;;5093330;28;20466;-60
2023/02/06 01:54:10;;;;;;;14.40;13.63;;;18.60;53.00;;;;;;5093299;28;20448;-57
2023/02/06 01:56:41;;;;;;;15.60;14.70;;;18.60;53.00;;;;;;5093186;28;20482;-57
2023/02/06 01:59:10;;;;;;;13.93;13.23;;;18.60;53.00;;;;;;5096809;28;20437;-59
2023/02/06 02:01:36;;;;;;;16.00;14.93;;;18.60;53.10;;;;;;5103985;28;20825;-59
2023/02/06 02:04:06;;;;;;;16.63;15.33;;;18.60;53.10;;;;;;5113321;28;20934;-60
2023/02/06 02:06:34;;;;;;;14.70;13.70;;;18.60;53.00;;;;;;5112423;28;20443;-58
2023/02/06 02:09:02;;;;;;;15.10;14.30;;;18.60;53.10;;;;;;5113181;28;20445;-60
2023/02/06 02:11:33;;;;;;;15.50;14.53;;;18.60;53.10;;;;;;5102969;28;20458;-59
2023/02/06 02:14:01;;;;;;;14.30;13.40;;;18.50;53.00;;;;;;5092801;28;20446;-58
2023/02/06 02:16:40;;;;;;;15.57;14.63;;;18.50;53.00;;;;;;5099824;28;20480;-60
2023/02/06 02:19:44;;;;;;;14.43;13.43;;;18.50;53.00;;;;;;5112947;28;20437;-59
2023/02/06 02:22:40;;;;;;;16.80;15.70;;;18.50;53.10;;;;;;5081994;28;20471;-56
2023/02/06 02:25:41;;;;;;;16.60;15.20;;;18.50;53.10;;;;;;5058195;28;20782;-60
2023/02/06 02:28:30;;;;;;;15.63;14.73;;;18.50;53.10;;;;;;5108838;28;20455;-58
2023/02/06 02:31:32;;;;;;;16.27;15.03;;;18.50;53.10;;;;;;5112753;28;20472;-58
2023/02/06 02:34:37;;;;;;;16.17;14.73;;;18.50;53.20;;;;;;5102618;28;20440;-57
2023/02/06 02:37:16;;;;;;;17.40;16.30;;;18.50;53.10;;;;;;5087159;28;20451;-57
2023/02/06 02:39:48;;;;;;;15.50;14.53;;;18.40;53.10;;;;;;5112563;28;20441;-58
2023/02/06 02:42:20;;;;;;;15.27;14.37;;;18.40;53.10;;;;;;5112603;28;20453;-57
2023/02/06 02:44:52;;;;;;;15.63;14.53;;;18.40;53.10;;;;;;5094005;28;20453;-57
2023/02/06 02:47:24;;;;;;;14.33;13.60;;;18.40;53.10;;;;;;5092314;28;20449;-60
2023/02/06 02:49:52;;;;;;;15.80;14.60;;;18.40;53.00;;;;;;5107496;28;20446;-58
2023/02/06 02:52:20;;;;;;;16.13;15.00;;;18.40;53.10;;;;;;5112824;28;20467;-59
2023/02/06 02:54:47;;;;;;;16.47;15.17;;;18.40;53.00;;;;;;5110813;28;20528;-58
2023/02/06 02:57:18;;;;;;;15.70;14.47;;;18.40;52.90;;;;;;5092784;28;20533;-57
2023/02/06 02:59:47;;;;;;;15.73;14.73;;;18.40;53.40;;;;;;5092851;28;20971;-58
2023/02/06 03:02:19;;;;;;;16.57;15.13;;;18.40;53.00;;;;;;5092559;28;20472;-60
2023/02/06 03:04:48;;;;;;;16.40;15.07;;;18.30;52.90;;;;;;5093102;28;20446;-59
2023/02/06 03:07:24;;;;;;;15.73;14.83;;;18.40;53.00;;;;;;5096525;28;20444;-59
2023/02/06 03:10:00;;;;;;;16.27;15.37;;;18.30;52.80;;;;;;5112634;28;20445;-58
2023/02/06 03:12:38;;;;;;;16.37;15.10;;;18.30;52.80;;;;;;5101515;28;20828;-58
2023/02/06 03:15:13;;;;;;;14.67;13.77;;;18.30;52.80;;;;;;5104759;28;20472;-59
2023/02/06 03:17:44;;;;;;;15.43;14.53;;;18.30;52.80;;;;;;5114180;28;20459;-58
2023/02/06 03:20:12;;;;;;;15.63;14.40;;;18.30;52.80;;;;;;5108453;28;20446;-60
2023/02/06 03:22:41;;;;;;;13.87;13.17;;;18.30;52.80;;;;;;5098559;28;20446;-58
2023/02/06 03:25:12;;;;;;;15.80;14.40;;;18.30;52.80;;;;;;5098532;28;20434;-60
2023/02/06 03:27:41;;;;;;;16.67;15.47;;;18.30;52.90;;;;;;5098565;28;21022;-59
2023/02/06 03:30:11;;;;;;;16.30;15.03;;;18.30;52.90;;;;;;5098284;28;20452;-58
2023/02/06 03:32:43;;;;;;;14.30;13.50;;;18.30;52.90;;;;;;5113969;28;20452;-58
2023/02/06 03:35:13;;;;;;;16.40;15.50;;;18.20;52.90;;;;;;5119170;28;20472;-59
2023/02/06 03:37:42;;;;;;;15.20;14.13;;;18.20;52.90;;;;;;5118928;28;20463;-58
2023/02/06 03:40:10;;;;;;;16.40;15.17;;;18.20;52.80;;;;;;5118573;28;20541;-60
2023/02/06 03:42:41;;;;;;;16.73;15.63;;;18.20;52.80;;;;;;5118984;28;20447;-60
2023/02/06 03:45:12;;;;;;;14.73;13.83;;;18.20;52.80;;;;;;5108918;28;20817;-59
2023/02/06 03:47:41;;;;;;;14.60;13.63;;;18.20;52.90;;;;;;5102657;28;20532;-59
2023/02/06 03:50:11;;;;;;;16.40;15.40;;;18.20;52.80;;;;;;5097970;28;20949;-59
2023/02/06 03:52:44;;;;;;;16.87;15.63;;;18.20;52.80;;;;;;5098406;28;20468;-58
2023/02/06 03:55:14;;;;;;;15.47;14.60;;;18.20;52.80;;;;;;5101498;28;20441;-60
2023/02/06 03:57:44;;;;;;;15.90;14.80;;;18.20;52.80;;;;;;5118645;28;20445;-58
2023/02/06 04:00:12;;;;;;;16.13;14.77;;;18.20;52.80;;;;;;5118133;28;20456;-60
2023/02/06 04:02:40;;;;;;;14.80;13.80;;;18.20;52.80;;;;;;5118608;28;20447;-59
2023/02/06 04:05:08;;;;;;;14.87;13.63;;;18.20;52.80;;;;;;5118614;28;21006;-57
2023/02/06 04:07:36;;;;;;;14.83;13.60;;;18.20;52.80;;;;;;5111929;28;20943;-58
2023/02/06 04:10:05;;;;;;;14.63;13.83;;;18.10;52.70;;;;;;5097900;28;20442;-58
2023/02/06 04:12:33;;;;;;;14.17;13.27;;;18.10;52.70;;;;;;5098037;28;20452;-59
2023/02/06 04:14:59;;;;;;;15.07;13.93;;;18.10;52.70;;;;;;5097977;28;20453;-59
2023/02/06 04:17:26;;;;;;;14.63;13.43;;;18.10;52.70;;;;;;5098055;28;20529;-57
2023/02/06 04:19:53;;;;;;;16.93;15.50;;;18.10;52.70;;;;;;5103978;28;20853;-59
2023/02/06 04:22:20;;;;;;;15.20;14.30;;;18.10;52.70;;;;;;5118301;28;20563;-58
2023/02/06 04:24:47;;;;;;;14.60;13.70;;;18.10;52.70;;;;;;5106463;28;20536;-57
2023/02/06 04:27:15;;;;;;;14.67;13.97;;;18.10;52.70;;;;;;5097927;28;20445;-57
2023/02/06 04:29:42;;;;;;;16.17;14.97;;;18.00;52.60;;;;;;5099412;28;20566;-58
2023/02/06 04:32:09;;;;;;;14.73;13.93;;;18.10;52.60;;;;;;5115291;28;20555;-59
2023/02/06 04:34:36;;;;;;;13.43;12.80;;;18.10;52.60;;;;;;5115296;28;20469;-58
2023/02/06 04:37:04;;;;;;;15.67;14.43;;;18.10;52.60;;;;;;5115230;28;20481;-57
2023/02/06 04:39:32;;;;;;;13.70;12.90;;;18.10;52.60;;;;;;5114653;28;20540;-59
2023/02/06 04:42:01;;;;;;;16.80;15.80;;;18.00;52.40;;;;;;5106562;28;20458;-58
2023/02/06 04:44:29;;;;;;;15.47;14.23;;;18.10;52.50;;;;;;5105545;28;20441;-59
2023/02/06 04:46:56;;;;;;;15.43;14.63;;;18.00;52.30;;;;;;5114757;28;20915;-60
2023/02/06 04:49:23;;;;;;;16.03;14.83;;;18.00;52.40;;;;;;5114719;28;20441;-57
2023/02/06 04:51:50;;;;;;;15.60;14.40;;;18.00;52.40;;;;;;5111444;28;20477;-58
2023/02/06 04:54:17;;;;;;;14.20;13.50;;;18.00;52.40;;;;;;5112992;28;20811;-59
2023/02/06 04:56:44;;;;;;;14.80;13.70;;;18.00;52.40;;;;;;5114648;28;20477;-59
2023/02/06 04:59:11;;;;;;;14.50;13.27;;;18.00;52.50;;;;;;5114596;28;20446;-60
2023/02/06 05:01:39;;;;;;;15.93;14.83;;;18.00;52.50;;;;;;5113302;28;20832;-57
2023/02/06 05:04:06;;;;;;;14.23;13.20;;;18.00;53.10;;;;;;5094277;28;21031;-60
2023/02/06 05:06:33;;;;;;;14.90;13.57;;;18.00;52.60;;;;;;5094165;28;20438;-55
2023/02/06 05:09:00;;;;;;;14.47;13.77;;;18.00;52.70;;;;;;5093840;28;20450;-58
2023/02/06 05:11:27;;;;;;;14.10;13.30;;;17.90;52.60;;;;;;5093811;28;20847;-59
2023/02/06 05:13:54;;;;;;;13.30;12.50;;;17.90;52.60;;;;;;5094552;28;20456;-56
2023/02/06 05:16:21;;;;;;;14.03;12.90;;;17.90;52.60;;;;;;5114311;28;20572;-55
2023/02/06 05:18:53;;;;;;;14.40;13.50;;;17.90;52.50;;;;;;5100868;28;20485;-56
2023/02/06 05:21:20;;;;;;;14.20;13.13;;;17.90;52.50;;;;;;5094239;28;20474;-57
2023/02/06 05:23:47;;;;;;;13.60;13.00;;;17.90;52.50;;;;;;5093886;28;20470;-58
2023/02/06 05:26:14;;;;;;;13.97;13.13;;;17.90;52.50;;;;;;5098081;28;20524;-57
2023/02/06 05:28:40;;;;;;;15.13;14.00;;;17.90;52.60;;;;;;5114134;28;20877;-56
2023/02/06 05:31:07;;;;;;;14.80;14.00;;;17.90;52.60;;;;;;5113974;28;20542;-57
2023/02/06 05:33:34;;;;;;;14.30;13.50;;;17.90;52.60;;;;;;5114043;28;20930;-59
2023/02/06 05:36:05;;;;;;;13.47;12.87;;;17.80;52.60;;;;;;5096947;28;21013;-56
2023/02/06 05:38:32;;;;;;;14.60;13.50;;;17.80;52.60;;;;;;5093523;28;20824;-58
2023/02/06 05:40:59;;;;;;;13.33;12.63;;;17.90;52.80;;;;;;5092944;28;20462;-56
2023/02/06 05:43:26;;;;;;;14.03;13.03;;;17.80;52.80;;;;;;5093285;28;20819;-58
2023/02/06 05:45:53;;;;;;;13.80;12.90;;;17.80;52.90;;;;;;5108531;28;20536;-58
2023/02/06 05:48:20;;;;;;;16.10;15.00;;;17.80;52.90;;;;;;5113845;28;21085;-58
2023/02/06 05:50:48;;;;;;;13.63;12.73;;;17.80;52.90;;;;;;5113337;28;20461;-56
2023/02/06 05:53:17;;;;;;;13.40;12.70;;;17.80;52.90;;;;;;5113758;28;20441;-59
2023/02/06 05:55:44;;;;;;;13.70;13.10;;;17.80;53.00;;;;;;5113430;28;20448;-58
2023/02/06 05:58:11;;;;;;;13.23;12.37;;;17.80;53.00;;;;;;5111682;28;21029;-58
2023/02/06 06:00:38;;;;;;;13.23;12.53;;;17.80;53.00;;;;;;5112948;28;20462;-59
2023/02/06 06:03:05;;;;;;;14.20;13.40;;;17.80;53.00;;;;;;5113283;28;20952;-57
2023/02/06 06:05:32;;;;;;;15.00;13.60;;;17.80;53.10;;;;;;5113294;28;20482;-59
2023/02/06 06:07:58;;;;;;;13.00;12.30;;;17.80;53.10;;;;;;5113309;28;20524;-57
2023/02/06 06:10:27;;;;;;;13.20;12.50;;;17.80;53.10;;;;;;5095619;28;20911;-59
2023/02/06 06:12:53;;;;;;;15.10;14.07;;;17.80;53.00;;;;;;5092683;28;20536;-58
2023/02/06 06:15:20;;;;;;;13.43;12.70;;;17.80;53.00;;;;;;5092889;28;20474;-58
2023/02/06 06:17:47;;;;;;;16.20;14.90;;;17.70;53.00;;;;;;5092578;28;20508;-57
2023/02/06 06:20:14;;;;;;;13.73;12.60;;;17.80;53.00;;;;;;5092360;28;20441;-58
2023/02/06 06:22:41;;;;;;;15.37;14.13;;;17.80;53.00;;;;;;5093639;28;20456;-55
2023/02/06 06:25:08;;;;;;;14.30;13.30;;;17.80;53.00;;;;;;5092514;28;20882;-58
2023/02/06 06:27:36;;;;;;;13.60;12.70;;;17.70;53.00;;;;;;5092404;28;20434;-60
2023/02/06 06:30:03;;;;;;;14.60;13.60;;;17.80;53.00;;;;;;5103606;28;20448;-59
2023/02/06 06:32:30;;;;;;;13.23;12.03;;;17.70;53.00;;;;;;5112719;28;20998;-56
2023/02/06 06:34:57;;;;;;;13.47;12.70;;;17.70;52.80;;;;;;5112910;28;20528;-56
2023/02/06 06:37:24;;;;;;;14.00;13.10;;;17.80;53.00;;;;;;5109494;28;20489;-57
2023/02/06 06:39:51;;;;;;;14.00;12.90;;;17.80;53.50;;;;;;5092180;28;20468;-59
2023/02/06 06:42:17;;;;;;;16.13;14.10;;;17.80;55.00;;;;;;5092177;28;20458;-59
2023/02/06 06:44:45;;;;;;;16.37;15.00;;;17.90;55.50;;;;;;5092398;28;20888;-58
2023/02/06 06:47:12;;;;;;;17.27;15.73;;;17.90;56.80;;;;;;5092948;28;20445;-58
2023/02/06 06:49:39;;;;;;;16.47;14.80;;;17.90;57.60;;;;;;5094947;28;20452;-59
2023/02/06 06:52:06;;;;;;;15.93;14.73;;;17.90;59.10;;;;;;5105000;28;20549;-60
2023/02/06 06:54:33;;;;;;;19.17;17.10;;;17.90;63.20;;;;;;5095499;28;20533;-60
2023/02/06 06:56:59;;;;;;;19.83;15.63;;;17.90;64.50;;;;;;5102083;28;20465;-62
2023/02/06 06:59:27;;;;;;;18.77;16.47;;;17.90;65.90;;;;;;5112151;28;20536;-60
2023/02/06 07:01:55;;;;;;;15.43;14.33;;;17.90;67.60;;;;;;5112170;28;20491;-61
2023/02/06 07:04:21;;;;;;;17.30;15.63;;;17.90;67.60;;;;;;5112202;28;20877;-61
2023/02/06 07:06:49;;;;;;;17.33;15.70;;;17.90;66.70;;;;;;5111756;28;20930;-59
2023/02/06 07:09:16;;;;;;;14.50;12.97;;;17.90;66.60;;;;;;5111973;28;20528;-60
2023/02/06 07:11:42;;;;;;;18.63;15.30;;;17.90;66.00;;;;;;5111973;28;20465;-57
2023/02/06 07:14:09;;;;;;;19.17;16.47;;;17.90;65.40;;;;;;5112040;28;20532;-59
2023/02/06 07:16:36;;;;;;;15.77;14.40;;;17.90;64.80;;;;;;5112068;28;20899;-61
2023/02/06 07:19:06;;;;;;;16.13;14.70;;;17.90;64.40;;;;;;5111935;28;20449;-61
2023/02/06 07:21:33;;;;;;;16.27;15.00;;;17.80;63.80;;;;;;5111875;28;20484;-61
2023/02/06 07:24:02;;;;;;;18.63;16.67;;;17.80;63.20;;;;;;5112077;28;20457;-60
2023/02/06 07:26:29;;;;;;;14.53;13.70;;;17.80;62.60;;;;;;5111917;28;20438;-60
2023/02/06 07:28:57;;;;;;;16.07;14.73;;;17.80;62.00;;;;;;5111754;28;20437;-62
2023/02/06 07:31:23;;;;;;;15.27;13.40;;;17.80;61.70;;;;;;5111808;28;20463;-61
2023/02/06 07:33:50;;;;;;;16.87;15.27;;;17.80;61.10;;;;;;5111916;28;20863;-60
2023/02/06 07:36:18;;;;;;;15.37;14.07;;;17.80;61.00;;;;;;5111892;28;20536;-61
2023/02/06 07:38:45;;;;;;;15.83;14.23;;;17.80;60.30;;;;;;5111887;28;20751;-61
2023/02/06 07:41:12;;;;;;;16.03;14.50;;;17.80;60.00;;;;;;5111672;28;20465;-60
2023/02/06 07:43:39;;;;;;;15.07;13.70;;;17.80;59.80;;;;;;5111781;28;21015;-60
2023/02/06 07:46:06;;;;;;;13.87;13.07;;;17.80;59.60;;;;;;5111810;28;20441;-61
2023/02/06 07:48:33;;;;;;;14.30;13.30;;;17.80;59.50;;;;;;5111745;28;20467;-61
2023/02/06 07:51:05;;;;;;;13.63;12.73;;;17.70;59.30;;;;;;5111539;28;21035;-60
2023/02/06 07:53:33;;;;;;;14.33;13.23;;;17.70;59.10;;;;;;5111845;28;20498;-59
2023/02/06 07:56:00;;;;;;;17.23;15.60;;;17.70;58.90;;;;;;5111721;28;20818;-61
2023/02/06 07:58:27;;;;;;;13.40;12.50;;;17.70;58.80;;;;;;5111694;28;20491;-58
2023/02/06 08:00:54;;;;;;;15.43;14.47;;;17.70;58.60;;;;;;5111358;28;20546;-58
2023/02/06 08:03:21;;;;;;;13.70;12.93;;;17.70;58.40;;;;;;5111766;28;20448;-59
2023/02/06 08:05:48;;;;;;;12.83;12.13;;;17.80;58.30;;;;;;5114350;28;20541;-61
2023/02/06 08:08:15;;;;;;;14.33;13.23;;;17.70;58.10;;;;;;5115501;28;20437;-60
2023/02/06 08:10:43;;;;;;;14.07;13.10;;;17.70;58.00;;;;;;5115131;28;20890;-61
2023/02/06 08:13:10;;;;;;;13.37;12.40;;;17.70;57.90;;;;;;5115421;28;20532;-58
2023/02/06 08:15:37;;;;;;;15.67;14.27;;;17.70;57.80;;;;;;5115283;28;20441;-61
2023/02/06 08:18:04;;;;;;;13.07;12.37;;;17.70;57.60;;;;;;5115201;28;20567;-61
2023/02/06 08:20:31;;;;;;;14.00;12.97;;;17.70;57.50;;;;;;5114756;28;20481;-60
2023/02/06 08:22:57;;;;;;;13.40;12.53;;;17.70;57.30;;;;;;5115167;28;20615;-61
2023/02/06 08:25:25;;;;;;;13.40;12.63;;;17.70;57.30;;;;;;5115267;28;20528;-60
2023/02/06 08:27:54;;;;;;;12.73;12.23;;;17.70;57.20;;;;;;5115232;28;20477;-60
2023/02/06 08:30:21;;;;;;;12.80;12.20;;;17.70;57.10;;;;;;5114702;28;20448;-58
2023/02/06 08:32:48;;;;;;;14.13;12.90;;;17.70;57.00;;;;;;5114968;28;20445;-61
2023/02/06 08:35:15;;;;;;;13.90;12.87;;;17.70;56.80;;;;;;5114928;28;20445;-59
2023/02/06 08:37:42;;;;;;;13.70;12.80;;;17.70;56.70;;;;;;5114877;28;20487;-61
2023/02/06 08:40:10;;;;;;;12.67;11.97;;;17.70;56.60;;;;;;5114566;28;20536;-59
2023/02/06 08:42:37;;;;;;;13.13;12.33;;;17.70;56.50;;;;;;5114864;28;20791;-60
2023/02/06 08:45:07;;;;;;;13.70;12.93;;;17.60;56.30;;;;;;5114820;28;20540;-61
2023/02/06 08:47:33;;;;;;;14.13;13.10;;;17.60;56.30;;;;;;5114712;28;20467;-59
2023/02/06 08:50:00;;;;;;;12.87;12.27;;;17.60;56.70;;;;;;5114541;28;20445;-60
2023/02/06 08:52:27;;;;;;;14.53;13.27;;;17.60;56.20;;;;;;5114677;28;20466;-61
2023/02/06 08:54:54;;;;;;;11.60;11.10;;;17.60;56.60;;;;;;5114481;28;20521;-60
2023/02/06 08:57:21;;;;;;;13.90;13.10;;;17.60;56.00;;;;;;5114527;28;20485;-58
2023/02/06 08:59:48;;;;;;;13.13;12.43;;;17.60;55.90;;;;;;5114343;28;20516;-61
2023/02/06 09:02:16;;;;;;;12.83;12.13;;;17.60;55.80;;;;;;5114452;28;20473;-59
2023/02/06 09:04:43;;;;;;;12.20;11.70;;;17.60;55.80;;;;;;5114329;28;20945;-60
2023/02/06 09:07:10;;;;;;;13.57;12.97;;;17.60;55.70;;;;;;5114376;28;20918;-60
2023/02/06 09:09:37;;;;;;;14.20;13.30;;;17.60;55.60;;;;;;5114084;28;20450;-60
2023/02/06 09:12:04;;;;;;;13.23;12.63;;;17.60;56.00;;;;;;5114239;28;20467;-60
2023/02/06 09:14:31;;;;;;;11.50;11.00;;;17.60;55.50;;;;;;5114282;28;20448;-60
2023/02/06 09:16:58;;;;;;;13.10;12.50;;;17.60;55.40;;;;;;5113736;28;20473;-60
2023/02/06 09:19:26;;;;;;;12.93;12.20;;;17.60;55.30;;;;;;5114064;28;20520;-60
2023/02/06 09:21:53;;;;;;;14.07;13.00;;;17.60;55.20;;;;;;5114020;28;20477;-59
2023/02/06 09:24:20;;;;;;;13.13;12.60;;;17.60;55.10;;;;;;5114008;28;20534;-59
2023/02/06 09:26:47;;;;;;;13.77;13.10;;;17.60;55.00;;;;;;5114028;28;20536;-60
2023/02/06 09:29:14;;;;;;;15.23;14.17;;;17.60;55.00;;;;;;5113834;28;20540;-61
2023/02/06 09:31:42;;;;;;;13.93;13.20;;;17.60;54.90;;;;;;5113723;28;21072;-61
2023/02/06 09:34:11;;;;;;;12.63;12.03;;;17.60;55.30;;;;;;5113804;28;20449;-59
2023/02/06 09:36:39;;;;;;;13.40;12.73;;;17.60;54.80;;;;;;5113830;28;20953;-59
2023/02/06 09:39:07;;;;;;;12.90;12.20;;;17.60;54.70;;;;;;5113470;28;20477;-61
2023/02/06 09:41:40;;;;;;;11.67;11.17;;;17.60;54.60;;;;;;5113538;28;20468;-58
2023/02/06 09:44:13;;;;;;;12.43;11.70;;;17.60;54.60;;;;;;5113682;28;20442;-60
2023/02/06 09:46:45;;;;;;;12.33;11.73;;;17.60;54.50;;;;;;5113591;28;20452;-60
2023/02/06 09:49:16;;;;;;;12.30;11.50;;;17.60;54.50;;;;;;5113456;28;20459;-59
2023/02/06 09:51:58;;;;;;;11.63;11.13;;;17.60;54.40;;;;;;5113507;28;20465;-60
2023/02/06 09:54:32;;;;;;;12.27;11.70;;;17.60;54.40;;;;;;5113515;28;20808;-59
2023/02/06 09:57:06;;;;;;;13.80;13.20;;;17.60;54.40;;;;;;5113377;28;20827;-59
2023/02/06 09:59:38;;;;;;;12.23;11.80;;;17.60;54.30;;;;;;5113263;28;20808;-60
2023/02/06 10:02:29;;;;;;;12.30;11.70;;;17.60;54.30;;;;;;5113202;28;20461;-60
2023/02/06 10:05:01;;;;;;;12.27;11.67;;;17.60;54.30;;;;;;5113395;28;20448;-58
2023/02/06 10:07:46;;;;;;;12.07;11.47;;;17.60;54.20;;;;;;5113195;28;20442;-60
2023/02/06 10:10:18;;;;;;;12.20;11.50;;;17.60;54.20;;;;;;5112984;28;20445;-59
2023/02/06 10:12:51;;;;;;;13.53;12.73;;;17.60;54.10;;;;;;5113141;28;20441;-59
2023/02/06 10:15:33;;;;;;;12.50;11.80;;;17.60;54.10;;;;;;5113007;28;20459;-59
2023/02/06 10:18:06;;;;;;;11.90;11.30;;;17.60;54.10;;;;;;5113023;28;20481;-61
2023/02/06 10:20:36;;;;;;;11.20;10.80;;;17.60;54.00;;;;;;5112588;28;20472;-60
2023/02/06 10:23:11;;;;;;;11.93;11.33;;;17.60;53.90;;;;;;5112814;28;20448;-59
2023/02/06 10:25:43;;;;;;;12.37;11.67;;;17.60;53.90;;;;;;5113003;28;20892;-59
2023/02/06 10:28:22;;;;;;;12.37;11.80;;;17.60;54.40;;;;;;5111954;28;20963;-58
2023/02/06 10:31:05;;;;;;;11.53;10.97;;;17.60;53.80;;;;;;5112319;28;20461;-60
2023/02/06 10:33:39;;;;;;;13.07;12.57;;;17.60;53.80;;;;;;5112795;28;20456;-59
2023/02/06 10:36:12;;;;;;;12.10;11.60;;;17.60;53.70;;;;;;5112680;28;20455;-59
2023/02/06 10:39:08;;;;;;;16.03;11.53;;;17.60;53.70;;;;;;5112696;28;20857;-60
2023/02/06 10:41:43;;;;;;;12.17;11.57;;;17.60;53.70;;;;;;5112421;28;20464;-58
2023/02/06 10:44:20;;;;;;;12.70;12.20;;;17.60;53.60;;;;;;5112555;28;20440;-60
2023/02/06 10:46:49;;;;;;;11.93;11.40;;;17.60;53.60;;;;;;5112552;28;20451;-61
2023/02/06 10:49:26;;;;;;;11.97;11.27;;;17.60;53.50;;;;;;5112353;28;20438;-59
2023/02/06 10:51:56;;;;;;;11.60;11.20;;;17.60;53.50;;;;;;5112262;28;20830;-61
2023/02/06 10:54:26;;;;;;;11.40;11.00;;;17.60;53.50;;;;;;5112465;28;20441;-59
2023/02/06 10:56:56;;;;;;;12.20;11.50;;;17.60;53.50;;;;;;5112349;28;20461;-59
2023/02/06 10:59:28;;;;;;;12.37;11.60;;;17.60;53.40;;;;;;5112182;28;20842;-61
2023/02/06 11:02:03;;;;;;;11.37;10.93;;;17.50;53.30;;;;;;5112285;28;20893;-61
2023/02/06 11:04:37;;;;;;;11.93;11.43;;;17.50;53.30;;;;;;5112332;28;20531;-60
2023/02/06 11:07:12;;;;;;;12.10;11.30;;;17.50;53.30;;;;;;5112431;28;20445;-60
2023/02/06 11:09:40;;;;;;;11.00;10.70;;;17.50;53.20;;;;;;5112057;28;20948;-61
2023/02/06 11:12:20;;;;;;;12.73;12.23;;;17.50;53.20;;;;;;5112107;28;21078;-57
2023/02/06 11:14:48;;;;;;;12.03;11.43;;;17.50;53.10;;;;;;5112174;28;20445;-59
2023/02/06 11:17:18;;;;;;;11.10;10.60;;;17.50;53.10;;;;;;5111966;28;20445;-60
2023/02/06 11:19:45;;;;;;;11.97;11.47;;;17.50;53.10;;;;;;5111946;28;20437;-60
2023/02/06 11:22:14;;;;;;;11.70;11.20;;;17.50;53.00;;;;;;5112364;28;20476;-58
2023/02/06 11:24:59;;;;;;;13.83;13.23;;;17.50;53.00;;;;;;5111901;28;20506;-61
2023/02/06 11:27:27;;;;;;;12.80;12.30;;;17.50;53.00;;;;;;5112054;28;20867;-60
2023/02/06 11:29:54;;;;;;;11.80;11.40;;;17.50;53.00;;;;;;5111736;28;20452;-60
2023/02/06 11:32:36;;;;;;;11.90;11.50;;;17.50;52.90;;;;;;5111842;28;20483;-60
2023/02/06 11:35:06;;;;;;;12.10;11.60;;;17.50;52.90;;;;;;5111949;28;20442;-60
2023/02/06 11:37:36;;;;;;;12.40;12.00;;;17.50;52.90;;;;;;5111835;28;20441;-60
2023/02/06 11:40:26;;;;;;;11.03;10.73;;;17.50;52.90;;;;;;5114998;28;20445;-59
2023/02/06 11:43:09;;;;;;;12.30;11.80;;;17.50;52.90;;;;;;5116158;28;20456;-60
2023/02/06 11:45:36;;;;;;;11.33;10.90;;;17.50;52.80;;;;;;5116039;28;20466;-58
2023/02/06 11:48:04;;;;;;;11.80;11.10;;;17.50;52.80;;;;;;5115943;28;20524;-57
2023/02/06 11:50:33;;;;;;;11.93;11.43;;;17.50;52.80;;;;;;5115568;28;20469;-58
2023/02/06 11:53:08;;;;;;;12.00;11.60;;;17.50;52.80;;;;;;5115787;28;20540;-59
2023/02/06 11:55:38;;;;;;;11.53;11.13;;;17.50;52.70;;;;;;5115931;28;20455;-61
2023/02/06 11:58:20;;;;;;;12.93;12.43;;;17.50;53.20;;;;;;5115755;28;20484;-59
2023/02/06 12:00:57;;;;;;;11.60;11.10;;;17.50;52.70;;;;;;5115498;28;20519;-56
2023/02/06 12:03:30;;;;;;;11.50;11.20;;;17.50;52.70;;;;;;5115713;28;20478;-59
2023/02/06 12:06:00;;;;;;;11.47;11.07;;;17.50;52.60;;;;;;5115616;28;20502;-60
2023/02/06 12:08:35;;;;;;;12.17;11.67;;;17.50;52.60;;;;;;5115610;28;20524;-60
2023/02/06 12:11:05;;;;;;;11.90;11.50;;;17.50;52.50;;;;;;5115263;28;20508;-60
2023/02/06 12:13:39;;;;;;;11.20;10.90;;;17.50;52.50;;;;;;5115478;28;20528;-60
2023/02/06 12:16:08;;;;;;;11.93;11.53;;;17.50;52.50;;;;;;5115487;28;20441;-58
2023/02/06 12:18:38;;;;;;;12.03;11.63;;;17.50;52.50;;;;;;5115261;28;20477;-60
2023/02/06 12:21:07;;;;;;;12.23;11.83;;;17.50;52.40;;;;;;5114848;28;20468;-57
2023/02/06 12:23:39;;;;;;;11.90;11.50;;;17.50;52.40;;;;;;5115255;28;20448;-61
2023/02/06 12:26:11;;;;;;;12.30;11.90;;;17.50;52.40;;;;;;5115231;28;20797;-60
2023/02/06 12:28:48;;;;;;;12.17;11.80;;;17.50;52.30;;;;;;5115221;28;20799;-59
2023/02/06 12:31:23;;;;;;;13.30;12.80;;;17.50;52.40;;;;;;5114808;28;20483;-60
2023/02/06 12:33:52;;;;;;;12.33;11.83;;;17.50;52.30;;;;;;5114984;28;20942;-59
2023/02/06 12:36:24;;;;;;;11.80;11.50;;;17.50;52.30;;;;;;5115183;28;20546;-60
2023/02/06 12:38:56;;;;;;;11.67;11.10;;;17.40;52.20;;;;;;5114844;28;20477;-61
2023/02/06 12:41:37;;;;;;;12.50;11.80;;;17.40;52.20;;;;;;5114774;28;20457;-59